sensor_id;sensor_type;location;lat;lon;timestamp;P1;durP1;ratioP1;P2;durP2;ratioP2
32824;SDS011;51060;42.640;24.356;2024-02-26T00:01:40;43.40;;;32.70;;
32824;SDS011;51060;42.640;24.356;2024-02-26T00:04:05;39.13;;;28.00;;
32824;SDS011;51060;42.640;24.356;2024-02-26T00:06:31;42.20;;;31.00;;
32824;SDS011;51060;42.640;24.356;2024-02-26T00:08:57;31.93;;;21.90;;
32824;SDS011;51060;42.640;24.356;2024-02-26T00:11:22;31.13;;;21.43;;
32824;SDS011;51060;42.640;24.356;2024-02-26T00:13:48;25.77;;;20.10;;
32824;SDS011;51060;42.640;24.356;2024-02-26T00:16:14;32.00;;;22.20;;
32824;SDS011;51060;42.640;24.356;2024-02-26T00:18:39;31.07;;;22.83;;
32824;SDS011;51060;42.640;24.356;2024-02-26T00:21:05;30.33;;;22.90;;
32824;SDS011;51060;42.640;24.356;2024-02-26T00:23:31;34.03;;;24.10;;
32824;SDS011;51060;42.640;24.356;2024-02-26T00:25:59;34.53;;;24.67;;
32824;SDS011;51060;42.640;24.356;2024-02-26T00:28:24;35.23;;;26.00;;
32824;SDS011;51060;42.640;24.356;2024-02-26T00:30:50;35.13;;;24.53;;
32824;SDS011;51060;42.640;24.356;2024-02-26T00:33:20;33.07;;;24.47;;
32824;SDS011;51060;42.640;24.356;2024-02-26T00:35:46;30.77;;;23.77;;
32824;SDS011;51060;42.640;24.356;2024-02-26T00:38:12;37.30;;;26.30;;
32824;SDS011;51060;42.640;24.356;2024-02-26T00:40:38;36.53;;;26.30;;
32824;SDS011;51060;42.640;24.356;2024-02-26T00:43:04;36.77;;;27.07;;
32824;SDS011;51060;42.640;24.356;2024-02-26T00:45:30;38.83;;;27.67;;
32824;SDS011;51060;42.640;24.356;2024-02-26T00:47:57;40.70;;;27.43;;
32824;SDS011;51060;42.640;24.356;2024-02-26T00:50:23;44.33;;;28.00;;
32824;SDS011;51060;42.640;24.356;2024-02-26T00:52:52;31.93;;;22.67;;
32824;SDS011;51060;42.640;24.356;2024-02-26T00:55:17;32.10;;;23.57;;
32824;SDS011;51060;42.640;24.356;2024-02-26T00:57:43;30.50;;;21.77;;
32824;SDS011;51060;42.640;24.356;2024-02-26T01:00:09;39.20;;;26.17;;
32824;SDS011;51060;42.640;24.356;2024-02-26T01:02:35;49.83;;;31.03;;
32824;SDS011;51060;42.640;24.356;2024-02-26T01:05:00;42.27;;;28.27;;
32824;SDS011;51060;42.640;24.356;2024-02-26T01:07:26;34.10;;;25.30;;
32824;SDS011;51060;42.640;24.356;2024-02-26T01:09:52;33.70;;;24.00;;
32824;SDS011;51060;42.640;24.356;2024-02-26T01:12:17;42.80;;;29.23;;
32824;SDS011;51060;42.640;24.356;2024-02-26T01:14:43;46.63;;;29.93;;
32824;SDS011;51060;42.640;24.356;2024-02-26T01:17:09;49.10;;;32.00;;
32824;SDS011;51060;42.640;24.356;2024-02-26T01:19:34;44.70;;;29.83;;
32824;SDS011;51060;42.640;24.356;2024-02-26T01:22:00;45.70;;;29.93;;
32824;SDS011;51060;42.640;24.356;2024-02-26T01:24:26;38.67;;;28.70;;
32824;SDS011;51060;42.640;24.356;2024-02-26T01:26:52;45.37;;;32.93;;
32824;SDS011;51060;42.640;24.356;2024-02-26T01:29:18;47.10;;;33.07;;
32824;SDS011;51060;42.640;24.356;2024-02-26T01:31:43;39.07;;;29.40;;
32824;SDS011;51060;42.640;24.356;2024-02-26T01:34:09;39.40;;;28.70;;
32824;SDS011;51060;42.640;24.356;2024-02-26T01:36:34;37.53;;;26.67;;
32824;SDS011;51060;42.640;24.356;2024-02-26T01:39:01;38.00;;;28.13;;
32824;SDS011;51060;42.640;24.356;2024-02-26T01:41:28;35.97;;;26.50;;
32824;SDS011;51060;42.640;24.356;2024-02-26T01:43:54;35.57;;;25.73;;
32824;SDS011;51060;42.640;24.356;2024-02-26T01:46:20;34.63;;;24.13;;
32824;SDS011;51060;42.640;24.356;2024-02-26T01:48:46;34.47;;;24.77;;
32824;SDS011;51060;42.640;24.356;2024-02-26T01:51:13;39.63;;;26.00;;
32824;SDS011;51060;42.640;24.356;2024-02-26T01:53:39;35.83;;;27.00;;
32824;SDS011;51060;42.640;24.356;2024-02-26T01:56:08;38.87;;;26.27;;
32824;SDS011;51060;42.640;24.356;2024-02-26T01:58:35;35.33;;;24.83;;
32824;SDS011;51060;42.640;24.356;2024-02-26T02:01:01;30.83;;;20.47;;
32824;SDS011;51060;42.640;24.356;2024-02-26T02:03:28;35.07;;;24.23;;
32824;SDS011;51060;42.640;24.356;2024-02-26T02:05:55;34.77;;;25.17;;
32824;SDS011;51060;42.640;24.356;2024-02-26T02:08:21;31.43;;;22.77;;
32824;SDS011;51060;42.640;24.356;2024-02-26T02:10:49;32.60;;;23.60;;
32824;SDS011;51060;42.640;24.356;2024-02-26T02:13:15;28.93;;;22.17;;
32824;SDS011;51060;42.640;24.356;2024-02-26T02:15:41;26.23;;;16.93;;
32824;SDS011;51060;42.640;24.356;2024-02-26T02:18:07;20.87;;;14.53;;
32824;SDS011;51060;42.640;24.356;2024-02-26T02:20:35;21.67;;;15.07;;
32824;SDS011;51060;42.640;24.356;2024-02-26T02:23:02;19.70;;;15.10;;
32824;SDS011;51060;42.640;24.356;2024-02-26T02:25:28;22.40;;;15.90;;
32824;SDS011;51060;42.640;24.356;2024-02-26T02:27:54;23.30;;;15.80;;
32824;SDS011;51060;42.640;24.356;2024-02-26T02:30:20;24.47;;;17.37;;
32824;SDS011;51060;42.640;24.356;2024-02-26T02:32:47;21.63;;;15.03;;
32824;SDS011;51060;42.640;24.356;2024-02-26T02:35:12;25.40;;;16.83;;
32824;SDS011;51060;42.640;24.356;2024-02-26T02:37:38;39.60;;;24.30;;
32824;SDS011;51060;42.640;24.356;2024-02-26T02:40:04;29.23;;;19.73;;
32824;SDS011;51060;42.640;24.356;2024-02-26T02:42:31;22.03;;;15.70;;
32824;SDS011;51060;42.640;24.356;2024-02-26T02:44:56;21.23;;;15.30;;
32824;SDS011;51060;42.640;24.356;2024-02-26T02:47:22;19.77;;;15.27;;
32824;SDS011;51060;42.640;24.356;2024-02-26T02:49:47;20.03;;;15.50;;
32824;SDS011;51060;42.640;24.356;2024-02-26T02:52:13;20.60;;;16.17;;
32824;SDS011;51060;42.640;24.356;2024-02-26T02:54:39;24.00;;;17.57;;
32824;SDS011;51060;42.640;24.356;2024-02-26T02:57:07;26.03;;;19.97;;
32824;SDS011;51060;42.640;24.356;2024-02-26T02:59:33;26.20;;;19.40;;
32824;SDS011;51060;42.640;24.356;2024-02-26T03:01:59;26.70;;;20.13;;
32824;SDS011;51060;42.640;24.356;2024-02-26T03:04:24;25.83;;;19.27;;
32824;SDS011;51060;42.640;24.356;2024-02-26T03:06:50;28.77;;;22.93;;
32824;SDS011;51060;42.640;24.356;2024-02-26T03:09:16;27.27;;;21.03;;
32824;SDS011;51060;42.640;24.356;2024-02-26T03:11:41;29.13;;;21.13;;
32824;SDS011;51060;42.640;24.356;2024-02-26T03:14:07;30.77;;;22.47;;
32824;SDS011;51060;42.640;24.356;2024-02-26T03:16:33;28.87;;;22.10;;
32824;SDS011;51060;42.640;24.356;2024-02-26T03:18:59;22.50;;;18.03;;
32824;SDS011;51060;42.640;24.356;2024-02-26T03:21:25;15.47;;;12.13;;
32824;SDS011;51060;42.640;24.356;2024-02-26T03:23:51;13.80;;;10.73;;
32824;SDS011;51060;42.640;24.356;2024-02-26T03:26:16;13.60;;;10.10;;
32824;SDS011;51060;42.640;24.356;2024-02-26T03:28:42;16.27;;;12.90;;
32824;SDS011;51060;42.640;24.356;2024-02-26T03:31:08;28.07;;;20.00;;
32824;SDS011;51060;42.640;24.356;2024-02-26T03:33:34;26.07;;;20.00;;
32824;SDS011;51060;42.640;24.356;2024-02-26T03:35:59;28.07;;;21.13;;
32824;SDS011;51060;42.640;24.356;2024-02-26T03:38:25;28.97;;;20.40;;
32824;SDS011;51060;42.640;24.356;2024-02-26T03:40:51;30.83;;;22.00;;
32824;SDS011;51060;42.640;24.356;2024-02-26T03:43:16;40.97;;;26.10;;
32824;SDS011;51060;42.640;24.356;2024-02-26T03:45:42;42.37;;;28.37;;
32824;SDS011;51060;42.640;24.356;2024-02-26T03:48:08;37.73;;;24.73;;
32824;SDS011;51060;42.640;24.356;2024-02-26T03:50:33;32.03;;;19.93;;
32824;SDS011;51060;42.640;24.356;2024-02-26T03:52:59;30.97;;;21.30;;
32824;SDS011;51060;42.640;24.356;2024-02-26T03:55:25;43.77;;;29.87;;
32824;SDS011;51060;42.640;24.356;2024-02-26T03:57:51;44.90;;;29.80;;
32824;SDS011;51060;42.640;24.356;2024-02-26T04:00:17;39.70;;;28.33;;
32824;SDS011;51060;42.640;24.356;2024-02-26T04:02:43;45.83;;;30.97;;
32824;SDS011;51060;42.640;24.356;2024-02-26T04:05:10;40.63;;;28.40;;
32824;SDS011;51060;42.640;24.356;2024-02-26T04:07:36;42.20;;;30.57;;
32824;SDS011;51060;42.640;24.356;2024-02-26T04:10:02;43.10;;;30.50;;
32824;SDS011;51060;42.640;24.356;2024-02-26T04:12:30;41.00;;;28.57;;
32824;SDS011;51060;42.640;24.356;2024-02-26T04:14:56;35.70;;;24.50;;
32824;SDS011;51060;42.640;24.356;2024-02-26T04:17:22;27.63;;;18.30;;
32824;SDS011;51060;42.640;24.356;2024-02-26T04:19:48;26.90;;;18.53;;
32824;SDS011;51060;42.640;24.356;2024-02-26T04:22:13;23.63;;;15.40;;
32824;SDS011;51060;42.640;24.356;2024-02-26T04:24:39;20.70;;;14.23;;
32824;SDS011;51060;42.640;24.356;2024-02-26T04:27:04;24.87;;;16.73;;
32824;SDS011;51060;42.640;24.356;2024-02-26T04:29:30;23.30;;;16.73;;
32824;SDS011;51060;42.640;24.356;2024-02-26T04:31:56;18.53;;;13.23;;
32824;SDS011;51060;42.640;24.356;2024-02-26T04:34:22;16.67;;;12.80;;
32824;SDS011;51060;42.640;24.356;2024-02-26T04:36:47;31.30;;;22.10;;
32824;SDS011;51060;42.640;24.356;2024-02-26T04:39:13;18.23;;;13.60;;
32824;SDS011;51060;42.640;24.356;2024-02-26T04:41:39;19.37;;;13.80;;
32824;SDS011;51060;42.640;24.356;2024-02-26T04:44:05;22.50;;;14.43;;
32824;SDS011;51060;42.640;24.356;2024-02-26T04:46:30;22.07;;;15.47;;
32824;SDS011;51060;42.640;24.356;2024-02-26T04:48:59;37.33;;;27.37;;
32824;SDS011;51060;42.640;24.356;2024-02-26T04:51:25;68.67;;;46.13;;
32824;SDS011;51060;42.640;24.356;2024-02-26T04:53:51;83.80;;;53.70;;
32824;SDS011;51060;42.640;24.356;2024-02-26T04:56:20;78.23;;;52.63;;
32824;SDS011;51060;42.640;24.356;2024-02-26T04:58:46;77.97;;;50.90;;
32824;SDS011;51060;42.640;24.356;2024-02-26T05:01:11;95.23;;;62.83;;
32824;SDS011;51060;42.640;24.356;2024-02-26T05:03:37;92.13;;;59.90;;
32824;SDS011;51060;42.640;24.356;2024-02-26T05:06:03;95.63;;;63.03;;
32824;SDS011;51060;42.640;24.356;2024-02-26T05:08:30;94.17;;;60.13;;
32824;SDS011;51060;42.640;24.356;2024-02-26T05:10:56;102.97;;;64.50;;
32824;SDS011;51060;42.640;24.356;2024-02-26T05:13:21;113.47;;;66.73;;
32824;SDS011;51060;42.640;24.356;2024-02-26T05:15:47;112.33;;;67.73;;
32824;SDS011;51060;42.640;24.356;2024-02-26T05:18:14;103.17;;;60.97;;
32824;SDS011;51060;42.640;24.356;2024-02-26T05:20:40;90.73;;;56.77;;
32824;SDS011;51060;42.640;24.356;2024-02-26T05:23:06;92.70;;;56.33;;
32824;SDS011;51060;42.640;24.356;2024-02-26T05:25:32;92.27;;;58.90;;
32824;SDS011;51060;42.640;24.356;2024-02-26T05:27:57;97.20;;;59.83;;
32824;SDS011;51060;42.640;24.356;2024-02-26T05:30:23;109.13;;;66.97;;
32824;SDS011;51060;42.640;24.356;2024-02-26T05:32:49;87.43;;;57.47;;
32824;SDS011;51060;42.640;24.356;2024-02-26T05:35:14;81.27;;;52.83;;
32824;SDS011;51060;42.640;24.356;2024-02-26T05:37:43;80.97;;;53.23;;
32824;SDS011;51060;42.640;24.356;2024-02-26T05:40:09;90.30;;;57.37;;
32824;SDS011;51060;42.640;24.356;2024-02-26T05:42:36;88.80;;;57.67;;
32824;SDS011;51060;42.640;24.356;2024-02-26T05:45:05;89.30;;;57.07;;
32824;SDS011;51060;42.640;24.356;2024-02-26T05:47:34;82.33;;;56.43;;
32824;SDS011;51060;42.640;24.356;2024-02-26T05:50:00;90.57;;;60.00;;
32824;SDS011;51060;42.640;24.356;2024-02-26T05:52:27;85.20;;;56.27;;
32824;SDS011;51060;42.640;24.356;2024-02-26T05:54:56;88.27;;;58.13;;
32824;SDS011;51060;42.640;24.356;2024-02-26T05:57:22;91.67;;;61.80;;
32824;SDS011;51060;42.640;24.356;2024-02-26T05:59:47;85.63;;;58.63;;
32824;SDS011;51060;42.640;24.356;2024-02-26T06:02:13;81.93;;;57.23;;
32824;SDS011;51060;42.640;24.356;2024-02-26T06:04:39;100.50;;;67.60;;
32824;SDS011;51060;42.640;24.356;2024-02-26T06:07:04;105.20;;;70.47;;
32824;SDS011;51060;42.640;24.356;2024-02-26T06:09:30;99.47;;;66.33;;
32824;SDS011;51060;42.640;24.356;2024-02-26T06:11:56;107.57;;;74.30;;
32824;SDS011;51060;42.640;24.356;2024-02-26T06:14:25;105.17;;;75.30;;
32824;SDS011;51060;42.640;24.356;2024-02-26T06:16:50;106.93;;;76.93;;
32824;SDS011;51060;42.640;24.356;2024-02-26T06:19:16;87.63;;;63.20;;
32824;SDS011;51060;42.640;24.356;2024-02-26T06:21:42;93.57;;;67.40;;
32824;SDS011;51060;42.640;24.356;2024-02-26T06:24:07;67.43;;;51.70;;
32824;SDS011;51060;42.640;24.356;2024-02-26T06:26:33;53.20;;;39.70;;
32824;SDS011;51060;42.640;24.356;2024-02-26T06:28:59;48.23;;;35.83;;
32824;SDS011;51060;42.640;24.356;2024-02-26T06:31:24;52.70;;;40.53;;
32824;SDS011;51060;42.640;24.356;2024-02-26T06:33:53;69.53;;;50.07;;
32824;SDS011;51060;42.640;24.356;2024-02-26T06:36:19;68.00;;;50.87;;
32824;SDS011;51060;42.640;24.356;2024-02-26T06:38:45;79.33;;;60.37;;
32824;SDS011;51060;42.640;24.356;2024-02-26T06:41:10;79.07;;;60.93;;
32824;SDS011;51060;42.640;24.356;2024-02-26T06:43:36;84.03;;;65.70;;
32824;SDS011;51060;42.640;24.356;2024-02-26T06:46:05;73.50;;;58.60;;
32824;SDS011;51060;42.640;24.356;2024-02-26T06:48:31;69.70;;;54.80;;
32824;SDS011;51060;42.640;24.356;2024-02-26T06:50:57;59.80;;;45.80;;
32824;SDS011;51060;42.640;24.356;2024-02-26T06:53:23;59.90;;;46.47;;
32824;SDS011;51060;42.640;24.356;2024-02-26T06:55:48;58.47;;;47.43;;
32824;SDS011;51060;42.640;24.356;2024-02-26T06:58:15;66.77;;;55.43;;
32824;SDS011;51060;42.640;24.356;2024-02-26T07:00:41;72.40;;;56.60;;
32824;SDS011;51060;42.640;24.356;2024-02-26T07:03:06;77.73;;;62.30;;
32824;SDS011;51060;42.640;24.356;2024-02-26T07:05:32;87.63;;;70.73;;
32824;SDS011;51060;42.640;24.356;2024-02-26T07:07:58;113.23;;;95.93;;
32824;SDS011;51060;42.640;24.356;2024-02-26T07:10:26;123.63;;;96.47;;
32824;SDS011;51060;42.640;24.356;2024-02-26T07:12:52;138.23;;;99.20;;
32824;SDS011;51060;42.640;24.356;2024-02-26T07:15:17;122.13;;;85.63;;
32824;SDS011;51060;42.640;24.356;2024-02-26T07:17:45;74.87;;;55.33;;
32824;SDS011;51060;42.640;24.356;2024-02-26T07:20:13;63.57;;;47.97;;
32824;SDS011;51060;42.640;24.356;2024-02-26T07:22:39;55.37;;;38.40;;
32824;SDS011;51060;42.640;24.356;2024-02-26T07:25:06;51.93;;;36.47;;
32824;SDS011;51060;42.640;24.356;2024-02-26T07:27:34;54.43;;;38.07;;
32824;SDS011;51060;42.640;24.356;2024-02-26T07:29:59;71.97;;;51.17;;
32824;SDS011;51060;42.640;24.356;2024-02-26T07:32:25;116.40;;;65.80;;
32824;SDS011;51060;42.640;24.356;2024-02-26T07:34:50;116.27;;;66.87;;
32824;SDS011;51060;42.640;24.356;2024-02-26T07:37:16;116.53;;;66.50;;
32824;SDS011;51060;42.640;24.356;2024-02-26T07:39:42;91.67;;;57.93;;
32824;SDS011;51060;42.640;24.356;2024-02-26T07:42:08;100.93;;;64.43;;
32824;SDS011;51060;42.640;24.356;2024-02-26T07:44:33;96.43;;;64.13;;
32824;SDS011;51060;42.640;24.356;2024-02-26T07:46:59;90.93;;;62.23;;
32824;SDS011;51060;42.640;24.356;2024-02-26T07:49:25;86.93;;;61.40;;
32824;SDS011;51060;42.640;24.356;2024-02-26T07:51:50;107.17;;;71.23;;
32824;SDS011;51060;42.640;24.356;2024-02-26T07:54:16;114.93;;;76.83;;
32824;SDS011;51060;42.640;24.356;2024-02-26T07:56:43;134.20;;;85.97;;
32824;SDS011;51060;42.640;24.356;2024-02-26T07:59:08;128.13;;;87.07;;
32824;SDS011;51060;42.640;24.356;2024-02-26T08:01:34;129.00;;;87.40;;
32824;SDS011;51060;42.640;24.356;2024-02-26T08:04:00;129.70;;;86.97;;
32824;SDS011;51060;42.640;24.356;2024-02-26T08:06:26;105.57;;;74.77;;
32824;SDS011;51060;42.640;24.356;2024-02-26T08:08:52;82.77;;;60.60;;
32824;SDS011;51060;42.640;24.356;2024-02-26T08:11:18;71.47;;;53.07;;
32824;SDS011;51060;42.640;24.356;2024-02-26T08:13:43;59.10;;;45.30;;
32824;SDS011;51060;42.640;24.356;2024-02-26T08:16:11;50.00;;;39.50;;
32824;SDS011;51060;42.640;24.356;2024-02-26T08:18:37;46.07;;;35.80;;
32824;SDS011;51060;42.640;24.356;2024-02-26T08:21:03;30.83;;;23.33;;
32824;SDS011;51060;42.640;24.356;2024-02-26T08:23:29;26.50;;;21.87;;
32824;SDS011;51060;42.640;24.356;2024-02-26T08:25:56;23.80;;;19.00;;
32824;SDS011;51060;42.640;24.356;2024-02-26T08:28:22;24.73;;;19.67;;
32824;SDS011;51060;42.640;24.356;2024-02-26T08:30:47;28.73;;;24.70;;
32824;SDS011;51060;42.640;24.356;2024-02-26T08:33:13;12.83;;;9.50;;
32824;SDS011;51060;42.640;24.356;2024-02-26T08:35:39;13.40;;;10.43;;
32824;SDS011;51060;42.640;24.356;2024-02-26T08:38:05;13.87;;;10.80;;
32824;SDS011;51060;42.640;24.356;2024-02-26T08:40:30;14.87;;;10.63;;
32824;SDS011;51060;42.640;24.356;2024-02-26T08:42:56;15.30;;;11.80;;
32824;SDS011;51060;42.640;24.356;2024-02-26T08:45:24;12.13;;;9.63;;
32824;SDS011;51060;42.640;24.356;2024-02-26T08:47:52;17.63;;;12.70;;
32824;SDS011;51060;42.640;24.356;2024-02-26T08:50:18;19.33;;;11.80;;
32824;SDS011;51060;42.640;24.356;2024-02-26T08:52:43;15.10;;;13.03;;
32824;SDS011;51060;42.640;24.356;2024-02-26T08:55:13;13.93;;;11.00;;
32824;SDS011;51060;42.640;24.356;2024-02-26T08:57:39;20.40;;;14.70;;
32824;SDS011;51060;42.640;24.356;2024-02-26T09:00:05;14.03;;;9.30;;
32824;SDS011;51060;42.640;24.356;2024-02-26T09:02:32;12.83;;;8.67;;
32824;SDS011;51060;42.640;24.356;2024-02-26T09:04:57;10.40;;;7.33;;
32824;SDS011;51060;42.640;24.356;2024-02-26T09:07:23;10.90;;;7.87;;
32824;SDS011;51060;42.640;24.356;2024-02-26T09:09:49;18.77;;;12.53;;
32824;SDS011;51060;42.640;24.356;2024-02-26T09:12:14;9.97;;;6.70;;
32824;SDS011;51060;42.640;24.356;2024-02-26T09:14:40;16.17;;;10.20;;
32824;SDS011;51060;42.640;24.356;2024-02-26T09:17:06;11.70;;;6.90;;
32824;SDS011;51060;42.640;24.356;2024-02-26T09:19:32;13.03;;;7.70;;
32824;SDS011;51060;42.640;24.356;2024-02-26T09:21:58;10.97;;;6.93;;
32824;SDS011;51060;42.640;24.356;2024-02-26T09:24:24;7.93;;;4.40;;
32824;SDS011;51060;42.640;24.356;2024-02-26T09:26:50;6.60;;;4.00;;
32824;SDS011;51060;42.640;24.356;2024-02-26T09:29:16;7.83;;;4.60;;
32824;SDS011;51060;42.640;24.356;2024-02-26T09:31:44;6.80;;;4.03;;
32824;SDS011;51060;42.640;24.356;2024-02-26T09:34:12;6.10;;;4.30;;
32824;SDS011;51060;42.640;24.356;2024-02-26T09:36:38;5.97;;;3.60;;
32824;SDS011;51060;42.640;24.356;2024-02-26T09:39:04;5.57;;;3.20;;
32824;SDS011;51060;42.640;24.356;2024-02-26T09:41:30;6.13;;;3.80;;
32824;SDS011;51060;42.640;24.356;2024-02-26T09:43:57;6.33;;;3.70;;
32824;SDS011;51060;42.640;24.356;2024-02-26T09:46:25;5.93;;;3.83;;
32824;SDS011;51060;42.640;24.356;2024-02-26T09:48:50;6.47;;;4.70;;
32824;SDS011;51060;42.640;24.356;2024-02-26T09:51:16;5.57;;;3.47;;
32824;SDS011;51060;42.640;24.356;2024-02-26T09:53:42;5.07;;;3.05;;
32824;SDS011;51060;42.640;24.356;2024-02-26T09:56:11;3.40;;;2.88;;
32824;SDS011;51060;42.640;24.356;2024-02-26T09:58:37;4.73;;;3.23;;
32824;SDS011;51060;42.640;24.356;2024-02-26T10:01:04;3.80;;;3.20;;
32824;SDS011;51060;42.640;24.356;2024-02-26T10:03:40;7.60;;;4.22;;
32824;SDS011;51060;42.640;24.356;2024-02-26T10:06:15;20.83;;;11.27;;
32824;SDS011;51060;42.640;24.356;2024-02-26T10:08:42;13.80;;;8.60;;
32824;SDS011;51060;42.640;24.356;2024-02-26T10:11:08;8.15;;;5.63;;
32824;SDS011;51060;42.640;24.356;2024-02-26T10:13:35;10.93;;;7.07;;
32824;SDS011;51060;42.640;24.356;2024-02-26T10:16:02;8.73;;;4.20;;
32824;SDS011;51060;42.640;24.356;2024-02-26T10:18:50;10.38;;;7.55;;
32824;SDS011;51060;42.640;24.356;2024-02-26T10:21:17;5.38;;;4.50;;
32824;SDS011;51060;42.640;24.356;2024-02-26T10:23:43;6.73;;;4.10;;
32824;SDS011;51060;42.640;24.356;2024-02-26T10:26:11;7.28;;;4.10;;
32824;SDS011;51060;42.640;24.356;2024-02-26T10:28:37;5.40;;;4.13;;
32824;SDS011;51060;42.640;24.356;2024-02-26T10:31:04;7.53;;;4.93;;
32824;SDS011;51060;42.640;24.356;2024-02-26T10:33:32;5.05;;;4.30;;
32824;SDS011;51060;42.640;24.356;2024-02-26T10:36:01;6.47;;;3.40;;
32824;SDS011;51060;42.640;24.356;2024-02-26T10:38:26;4.70;;;3.20;;
32824;SDS011;51060;42.640;24.356;2024-02-26T10:40:52;4.90;;;3.60;;
32824;SDS011;51060;42.640;24.356;2024-02-26T10:43:18;6.18;;;4.20;;
32824;SDS011;51060;42.640;24.356;2024-02-26T10:45:43;11.60;;;5.85;;
32824;SDS011;51060;42.640;24.356;2024-02-26T10:48:10;7.60;;;4.70;;
32824;SDS011;51060;42.640;24.356;2024-02-26T10:50:38;4.95;;;3.97;;
32824;SDS011;51060;42.640;24.356;2024-02-26T10:53:05;5.43;;;4.30;;
32824;SDS011;51060;42.640;24.356;2024-02-26T10:55:42;6.32;;;3.67;;
32824;SDS011;51060;42.640;24.356;2024-02-26T10:58:11;7.90;;;3.78;;
32824;SDS011;51060;42.640;24.356;2024-02-26T11:00:38;6.25;;;3.80;;
32824;SDS011;51060;42.640;24.356;2024-02-26T11:03:04;11.60;;;4.70;;
32824;SDS011;51060;42.640;24.356;2024-02-26T11:05:31;6.50;;;4.03;;
32824;SDS011;51060;42.640;24.356;2024-02-26T11:07:59;6.40;;;4.22;;
32824;SDS011;51060;42.640;24.356;2024-02-26T11:10:25;13.10;;;6.57;;
32824;SDS011;51060;42.640;24.356;2024-02-26T11:12:52;10.60;;;6.68;;
32824;SDS011;51060;42.640;24.356;2024-02-26T11:15:21;7.05;;;5.00;;
32824;SDS011;51060;42.640;24.356;2024-02-26T11:17:50;9.07;;;5.65;;
32824;SDS011;51060;42.640;24.356;2024-02-26T11:20:17;7.20;;;4.75;;
32824;SDS011;51060;42.640;24.356;2024-02-26T11:22:45;6.82;;;4.00;;
32824;SDS011;51060;42.640;24.356;2024-02-26T11:25:11;9.00;;;5.45;;
32824;SDS011;51060;42.640;24.356;2024-02-26T11:27:46;5.95;;;4.47;;
32824;SDS011;51060;42.640;24.356;2024-02-26T11:30:14;18.98;;;11.75;;
32824;SDS011;51060;42.640;24.356;2024-02-26T11:32:47;20.63;;;12.90;;
32824;SDS011;51060;42.640;24.356;2024-02-26T11:35:13;6.78;;;5.60;;
32824;SDS011;51060;42.640;24.356;2024-02-26T11:37:53;6.30;;;3.90;;
32824;SDS011;51060;42.640;24.356;2024-02-26T11:40:19;9.97;;;6.30;;
32824;SDS011;51060;42.640;24.356;2024-02-26T11:42:45;5.78;;;3.75;;
32824;SDS011;51060;42.640;24.356;2024-02-26T11:48:03;5.25;;;3.17;;
32824;SDS011;51060;42.640;24.356;2024-02-26T11:50:42;8.63;;;4.40;;
32824;SDS011;51060;42.640;24.356;2024-02-26T11:53:21;6.82;;;4.20;;
32824;SDS011;51060;42.640;24.356;2024-02-26T11:55:48;6.95;;;3.85;;
32824;SDS011;51060;42.640;24.356;2024-02-26T11:58:32;6.80;;;4.20;;
32824;SDS011;51060;42.640;24.356;2024-02-26T12:00:58;6.13;;;5.53;;
32824;SDS011;51060;42.640;24.356;2024-02-26T12:03:23;9.23;;;5.83;;
32824;SDS011;51060;42.640;24.356;2024-02-26T12:05:49;4.90;;;4.10;;
32824;SDS011;51060;42.640;24.356;2024-02-26T12:08:17;13.23;;;7.30;;
32824;SDS011;51060;42.640;24.356;2024-02-26T12:10:45;10.57;;;6.47;;
32824;SDS011;51060;42.640;24.356;2024-02-26T12:13:12;19.67;;;12.90;;
32824;SDS011;51060;42.640;24.356;2024-02-26T12:15:44;36.83;;;20.17;;
32824;SDS011;51060;42.640;24.356;2024-02-26T12:18:30;26.52;;;15.88;;
32824;SDS011;51060;42.640;24.356;2024-02-26T12:20:59;13.82;;;9.60;;
32824;SDS011;51060;42.640;24.356;2024-02-26T12:23:29;9.25;;;4.82;;
32824;SDS011;51060;42.640;24.356;2024-02-26T12:25:58;9.43;;;5.63;;
32824;SDS011;51060;42.640;24.356;2024-02-26T12:28:30;7.00;;;4.63;;
32824;SDS011;51060;42.640;24.356;2024-02-26T12:30:56;7.90;;;5.03;;
32824;SDS011;51060;42.640;24.356;2024-02-26T12:33:24;6.93;;;5.70;;
32824;SDS011;51060;42.640;24.356;2024-02-26T12:35:51;8.93;;;5.22;;
32824;SDS011;51060;42.640;24.356;2024-02-26T12:38:17;4.68;;;3.80;;
32824;SDS011;51060;42.640;24.356;2024-02-26T12:40:44;9.70;;;5.63;;
32824;SDS011;51060;42.640;24.356;2024-02-26T12:43:10;9.82;;;7.25;;
32824;SDS011;51060;42.640;24.356;2024-02-26T12:45:41;9.50;;;6.65;;
32824;SDS011;51060;42.640;24.356;2024-02-26T12:48:07;13.30;;;10.10;;
32824;SDS011;51060;42.640;24.356;2024-02-26T12:50:32;14.65;;;9.40;;
32824;SDS011;51060;42.640;24.356;2024-02-26T12:52:59;8.50;;;5.22;;
32824;SDS011;51060;42.640;24.356;2024-02-26T12:55:24;15.60;;;7.72;;
32824;SDS011;51060;42.640;24.356;2024-02-26T12:57:51;9.48;;;6.68;;
32824;SDS011;51060;42.640;24.356;2024-02-26T13:00:22;7.57;;;6.07;;
32824;SDS011;51060;42.640;24.356;2024-02-26T13:02:50;8.82;;;6.75;;
32824;SDS011;51060;42.640;24.356;2024-02-26T13:05:16;9.05;;;7.10;;
32824;SDS011;51060;42.640;24.356;2024-02-26T13:07:43;13.18;;;8.45;;
32824;SDS011;51060;42.640;24.356;2024-02-26T13:10:10;11.27;;;8.07;;
32824;SDS011;51060;42.640;24.356;2024-02-26T13:12:48;12.98;;;8.25;;
32824;SDS011;51060;42.640;24.356;2024-02-26T13:15:19;12.05;;;7.55;;
32824;SDS011;51060;42.640;24.356;2024-02-26T13:17:46;8.02;;;5.78;;
32824;SDS011;51060;42.640;24.356;2024-02-26T13:20:12;6.55;;;4.93;;
32824;SDS011;51060;42.640;24.356;2024-02-26T13:22:40;10.15;;;6.10;;
32824;SDS011;51060;42.640;24.356;2024-02-26T13:25:06;13.73;;;7.60;;
32824;SDS011;51060;42.640;24.356;2024-02-26T13:27:32;8.40;;;5.40;;
32824;SDS011;51060;42.640;24.356;2024-02-26T13:32:36;9.35;;;7.28;;
32824;SDS011;51060;42.640;24.356;2024-02-26T13:37:33;10.05;;;6.82;;
32824;SDS011;51060;42.640;24.356;2024-02-26T13:39:59;10.88;;;6.50;;
32824;SDS011;51060;42.640;24.356;2024-02-26T13:42:25;10.10;;;7.63;;
32824;SDS011;51060;42.640;24.356;2024-02-26T13:44:50;9.98;;;6.15;;
32824;SDS011;51060;42.640;24.356;2024-02-26T13:47:16;12.60;;;7.38;;
32824;SDS011;51060;42.640;24.356;2024-02-26T13:49:43;8.90;;;7.03;;
32824;SDS011;51060;42.640;24.356;2024-02-26T13:52:09;12.40;;;7.68;;
32824;SDS011;51060;42.640;24.356;2024-02-26T13:54:34;11.32;;;7.57;;
32824;SDS011;51060;42.640;24.356;2024-02-26T13:57:00;9.38;;;7.15;;
32824;SDS011;51060;42.640;24.356;2024-02-26T13:59:26;6.95;;;4.53;;
32824;SDS011;51060;42.640;24.356;2024-02-26T14:01:51;6.93;;;5.18;;
32824;SDS011;51060;42.640;24.356;2024-02-26T14:04:20;8.00;;;5.50;;
32824;SDS011;51060;42.640;24.356;2024-02-26T14:06:45;8.02;;;5.97;;
32824;SDS011;51060;42.640;24.356;2024-02-26T14:09:14;7.93;;;5.82;;
32824;SDS011;51060;42.640;24.356;2024-02-26T14:11:44;10.23;;;6.72;;
32824;SDS011;51060;42.640;24.356;2024-02-26T14:14:10;9.23;;;6.32;;
32824;SDS011;51060;42.640;24.356;2024-02-26T14:16:39;8.73;;;6.35;;
32824;SDS011;51060;42.640;24.356;2024-02-26T14:19:04;9.95;;;7.00;;
32824;SDS011;51060;42.640;24.356;2024-02-26T14:21:30;14.27;;;8.98;;